Ladysmith, Canada
Current Conditions -  °F | °C
As of 9:00 AM on Friday 28 Nov 2014 (Local Time) from CYCD Reporting Station
Broken Clouds Broken Clouds  
Wind Chill: 36°   Ceiling: 6000
Heat Index: 41°   Visibility: 15mi
Dew Point: 32°   Wind: 8mph
Humidity: 70%   Direction: 290°WNW
Pressure: 29.55"   Gusts: NA
Location:  48.98°N, 123.82°W
Report Text: CYCD 281700Z 29007KT 15SM FEW010 FEW035 BKN060 BKN090 BKN210 05/M00 A2955 RMK SC1SC1SC3AC1CI1 SLP006
Loading
Personal Weather Stations






























Interactive Weather Map New forecast layout! Learn more

10-Day Weather Forecast

Advertisements
Track Severe Weather on mobile